LEVS

Madrid / Cuatro Vientos Airport

Madrid Cuatro Vientos, Spain
TAF LEVS 211700Z 2118/2203 34010KT 9999 SCT040 BECMG 2122/2124 VRB04KT
Issued Valid From Valid To
Jan-21 @ 17:00 UTC
(7 hours ago)
Jan-21 @ 18:00 UTC
(6 hours ago)
Jan-22 @ 03:00 UTC
(in 3 hours)
Expired Click to View Jan-21 @ 18:00 to Jan-21 @ 22:00
TAF LEVS 211700Z 2118/2203 34010KT 9999 SCT040
Wind Visibility Clouds
340° at 10 knots 10,000+ meters
  • Scattered at 4,000' AGL
Becoming Jan-21 @ 22:00 to Jan-22 @ 03:00
BECMG 2122/2124 VRB04KT
Wind Visibility Clouds
Variable at 4 knots 10,000+ meters
  • Scattered at 4,000' AGL
TAF LEVS 211700Z 2118/2203 34010KT 9999 SCT040 BECMG 2122/2124 VRB04KT
Issued Jan-21 @ 17:00 UTC
(7 hours ago)
Valid From Jan-21 @ 18:00 UTC
(6 hours ago)
Valid To Jan-22 @ 03:00 UTC
(in 3 hours)
Jan-21 @ 18:00 - Jan-21 @ 22:00
Wind Visibility
340° at 10 knots 10,000+ meters
Clouds
  • Scattered at 4,000' AGL
Becoming Jan-21 @ 22:00 - Jan-22 @ 03:00
Wind Visibility
Variable at 4 knots 10,000+ meters
Clouds
  • Scattered at 4,000' AGL